sensor_id;sensor_type;location;lat;lon;timestamp;P1;durP1;ratioP1;P2;durP2;ratioP2
65717;SDS011;52445;52.466;-1.016;2024-03-25T00:00:23;5.72;;;2.33;;
65717;SDS011;52445;52.466;-1.016;2024-03-25T00:02:50;5.88;;;2.30;;
65717;SDS011;52445;52.466;-1.016;2024-03-25T00:05:16;9.15;;;2.92;;
65717;SDS011;52445;52.466;-1.016;2024-03-25T00:07:48;6.03;;;2.83;;
65717;SDS011;52445;52.466;-1.016;2024-03-25T00:10:14;7.63;;;3.08;;
65717;SDS011;52445;52.466;-1.016;2024-03-25T00:12:40;6.70;;;3.70;;
65717;SDS011;52445;52.466;-1.016;2024-03-25T00:15:06;5.55;;;2.70;;
65717;SDS011;52445;52.466;-1.016;2024-03-25T00:17:32;6.93;;;2.28;;
65717;SDS011;52445;52.466;-1.016;2024-03-25T00:19:59;8.10;;;2.30;;
65717;SDS011;52445;52.466;-1.016;2024-03-25T00:22:25;6.53;;;2.30;;
65717;SDS011;52445;52.466;-1.016;2024-03-25T00:24:51;5.65;;;2.65;;
65717;SDS011;52445;52.466;-1.016;2024-03-25T00:27:17;7.57;;;3.00;;
65717;SDS011;52445;52.466;-1.016;2024-03-25T00:29:44;7.25;;;2.60;;
65717;SDS011;52445;52.466;-1.016;2024-03-25T00:32:10;5.55;;;2.70;;
65717;SDS011;52445;52.466;-1.016;2024-03-25T00:34:36;4.95;;;3.13;;
65717;SDS011;52445;52.466;-1.016;2024-03-25T00:37:02;8.30;;;3.90;;
65717;SDS011;52445;52.466;-1.016;2024-03-25T00:39:29;7.20;;;3.28;;
65717;SDS011;52445;52.466;-1.016;2024-03-25T00:41:57;8.68;;;3.47;;
65717;SDS011;52445;52.466;-1.016;2024-03-25T00:44:24;8.27;;;2.88;;
65717;SDS011;52445;52.466;-1.016;2024-03-25T00:46:49;8.93;;;3.33;;
65717;SDS011;52445;52.466;-1.016;2024-03-25T00:49:15;7.57;;;3.20;;
65717;SDS011;52445;52.466;-1.016;2024-03-25T00:51:41;7.15;;;3.33;;
65717;SDS011;52445;52.466;-1.016;2024-03-25T00:54:06;6.60;;;2.80;;
65717;SDS011;52445;52.466;-1.016;2024-03-25T00:56:32;7.15;;;3.20;;
65717;SDS011;52445;52.466;-1.016;2024-03-25T00:58:58;8.05;;;3.63;;
65717;SDS011;52445;52.466;-1.016;2024-03-25T01:01:29;5.30;;;2.83;;
65717;SDS011;52445;52.466;-1.016;2024-03-25T01:03:55;9.75;;;2.90;;
65717;SDS011;52445;52.466;-1.016;2024-03-25T01:06:21;7.45;;;2.58;;
65717;SDS011;52445;52.466;-1.016;2024-03-25T01:08:47;8.65;;;3.20;;
65717;SDS011;52445;52.466;-1.016;2024-03-25T01:11:12;10.73;;;3.00;;
65717;SDS011;52445;52.466;-1.016;2024-03-25T01:13:38;7.43;;;2.90;;
65717;SDS011;52445;52.466;-1.016;2024-03-25T01:16:04;6.38;;;3.05;;
65717;SDS011;52445;52.466;-1.016;2024-03-25T01:18:30;11.02;;;3.63;;
65717;SDS011;52445;52.466;-1.016;2024-03-25T01:20:55;8.52;;;3.42;;
65717;SDS011;52445;52.466;-1.016;2024-03-25T01:23:21;6.57;;;3.58;;
65717;SDS011;52445;52.466;-1.016;2024-03-25T01:25:46;7.35;;;3.80;;
65717;SDS011;52445;52.466;-1.016;2024-03-25T01:28:12;6.90;;;3.55;;
65717;SDS011;52445;52.466;-1.016;2024-03-25T01:30:38;9.30;;;3.72;;
65717;SDS011;52445;52.466;-1.016;2024-03-25T01:33:05;8.07;;;4.05;;
65717;SDS011;52445;52.466;-1.016;2024-03-25T01:35:31;7.38;;;3.13;;
65717;SDS011;52445;52.466;-1.016;2024-03-25T01:37:57;6.50;;;2.90;;
65717;SDS011;52445;52.466;-1.016;2024-03-25T01:40:23;8.35;;;3.08;;
65717;SDS011;52445;52.466;-1.016;2024-03-25T01:43:04;6.55;;;3.70;;
65717;SDS011;52445;52.466;-1.016;2024-03-25T01:45:31;8.60;;;3.70;;
65717;SDS011;52445;52.466;-1.016;2024-03-25T01:47:59;8.50;;;3.42;;
65717;SDS011;52445;52.466;-1.016;2024-03-25T01:50:28;7.72;;;4.25;;
65717;SDS011;52445;52.466;-1.016;2024-03-25T01:52:56;7.63;;;3.42;;
65717;SDS011;52445;52.466;-1.016;2024-03-25T01:55:23;7.60;;;3.13;;
65717;SDS011;52445;52.466;-1.016;2024-03-25T01:57:51;9.80;;;3.03;;
65717;SDS011;52445;52.466;-1.016;2024-03-25T02:00:17;4.93;;;3.03;;
65717;SDS011;52445;52.466;-1.016;2024-03-25T02:02:44;7.78;;;3.03;;
65717;SDS011;52445;52.466;-1.016;2024-03-25T02:05:11;7.00;;;2.75;;
65717;SDS011;52445;52.466;-1.016;2024-03-25T02:07:37;9.32;;;2.85;;
65717;SDS011;52445;52.466;-1.016;2024-03-25T02:10:04;4.07;;;2.13;;
65717;SDS011;52445;52.466;-1.016;2024-03-25T02:12:31;6.65;;;2.97;;
65717;SDS011;52445;52.466;-1.016;2024-03-25T02:14:57;6.00;;;3.35;;
65717;SDS011;52445;52.466;-1.016;2024-03-25T02:17:24;6.30;;;2.78;;
65717;SDS011;52445;52.466;-1.016;2024-03-25T02:19:50;6.07;;;2.80;;
65717;SDS011;52445;52.466;-1.016;2024-03-25T02:22:16;9.90;;;2.80;;
65717;SDS011;52445;52.466;-1.016;2024-03-25T02:24:42;7.55;;;2.75;;
65717;SDS011;52445;52.466;-1.016;2024-03-25T02:27:10;10.55;;;3.05;;
65717;SDS011;52445;52.466;-1.016;2024-03-25T02:29:40;7.78;;;2.75;;
65717;SDS011;52445;52.466;-1.016;2024-03-25T02:32:07;4.70;;;2.38;;
65717;SDS011;52445;52.466;-1.016;2024-03-25T02:34:37;8.02;;;2.90;;
65717;SDS011;52445;52.466;-1.016;2024-03-25T02:37:04;12.35;;;3.10;;
65717;SDS011;52445;52.466;-1.016;2024-03-25T02:39:29;5.85;;;2.65;;
65717;SDS011;52445;52.466;-1.016;2024-03-25T02:41:58;9.60;;;3.90;;
65717;SDS011;52445;52.466;-1.016;2024-03-25T02:44:24;5.78;;;2.63;;
65717;SDS011;52445;52.466;-1.016;2024-03-25T02:46:49;7.35;;;2.70;;
65717;SDS011;52445;52.466;-1.016;2024-03-25T02:49:15;8.40;;;2.75;;
65717;SDS011;52445;52.466;-1.016;2024-03-25T02:51:41;7.15;;;2.80;;
65717;SDS011;52445;52.466;-1.016;2024-03-25T02:54:07;5.75;;;2.72;;
65717;SDS011;52445;52.466;-1.016;2024-03-25T02:56:34;7.38;;;3.17;;
65717;SDS011;52445;52.466;-1.016;2024-03-25T02:59:00;5.63;;;2.55;;
65717;SDS011;52445;52.466;-1.016;2024-03-25T03:01:26;10.07;;;2.80;;
65717;SDS011;52445;52.466;-1.016;2024-03-25T03:03:51;8.18;;;2.72;;
65717;SDS011;52445;52.466;-1.016;2024-03-25T03:06:17;9.18;;;3.30;;
65717;SDS011;52445;52.466;-1.016;2024-03-25T03:08:44;7.15;;;2.92;;
65717;SDS011;52445;52.466;-1.016;2024-03-25T03:11:10;6.55;;;2.85;;
65717;SDS011;52445;52.466;-1.016;2024-03-25T03:13:35;6.00;;;2.72;;
65717;SDS011;52445;52.466;-1.016;2024-03-25T03:16:01;6.90;;;2.25;;
65717;SDS011;52445;52.466;-1.016;2024-03-25T03:18:27;5.50;;;2.03;;
65717;SDS011;52445;52.466;-1.016;2024-03-25T03:20:53;7.28;;;1.90;;
65717;SDS011;52445;52.466;-1.016;2024-03-25T03:23:21;9.80;;;2.47;;
65717;SDS011;52445;52.466;-1.016;2024-03-25T03:25:47;7.43;;;2.47;;
65717;SDS011;52445;52.466;-1.016;2024-03-25T03:28:14;4.78;;;1.67;;
65717;SDS011;52445;52.466;-1.016;2024-03-25T03:30:40;9.07;;;2.85;;
65717;SDS011;52445;52.466;-1.016;2024-03-25T03:33:06;5.53;;;1.92;;
65717;SDS011;52445;52.466;-1.016;2024-03-25T03:35:33;5.03;;;2.13;;
65717;SDS011;52445;52.466;-1.016;2024-03-25T03:37:59;6.50;;;2.45;;
65717;SDS011;52445;52.466;-1.016;2024-03-25T03:40:24;5.53;;;2.00;;
65717;SDS011;52445;52.466;-1.016;2024-03-25T03:42:50;6.53;;;1.63;;
65717;SDS011;52445;52.466;-1.016;2024-03-25T03:45:16;6.10;;;2.15;;
65717;SDS011;52445;52.466;-1.016;2024-03-25T03:47:41;3.83;;;1.67;;
65717;SDS011;52445;52.466;-1.016;2024-03-25T03:50:07;5.97;;;2.15;;
65717;SDS011;52445;52.466;-1.016;2024-03-25T03:52:33;6.85;;;1.45;;
65717;SDS011;52445;52.466;-1.016;2024-03-25T03:54:59;5.85;;;2.28;;
65717;SDS011;52445;52.466;-1.016;2024-03-25T03:57:25;6.30;;;1.75;;
65717;SDS011;52445;52.466;-1.016;2024-03-25T03:59:52;6.78;;;1.85;;
65717;SDS011;52445;52.466;-1.016;2024-03-25T04:02:17;3.42;;;1.02;;
65717;SDS011;52445;52.466;-1.016;2024-03-25T04:04:43;5.90;;;1.83;;
65717;SDS011;52445;52.466;-1.016;2024-03-25T04:07:09;4.70;;;1.85;;
65717;SDS011;52445;52.466;-1.016;2024-03-25T04:09:35;6.00;;;2.30;;
65717;SDS011;52445;52.466;-1.016;2024-03-25T04:12:01;5.32;;;1.58;;
65717;SDS011;52445;52.466;-1.016;2024-03-25T04:14:26;4.88;;;2.00;;
65717;SDS011;52445;52.466;-1.016;2024-03-25T04:16:52;10.35;;;2.47;;
65717;SDS011;52445;52.466;-1.016;2024-03-25T04:19:19;7.15;;;2.00;;
65717;SDS011;52445;52.466;-1.016;2024-03-25T04:21:45;6.10;;;2.05;;
65717;SDS011;52445;52.466;-1.016;2024-03-25T04:24:11;6.00;;;1.45;;
65717;SDS011;52445;52.466;-1.016;2024-03-25T04:26:37;3.42;;;1.67;;
65717;SDS011;52445;52.466;-1.016;2024-03-25T04:29:03;6.90;;;1.92;;
65717;SDS011;52445;52.466;-1.016;2024-03-25T04:31:29;5.70;;;2.38;;
65717;SDS011;52445;52.466;-1.016;2024-03-25T04:33:55;4.57;;;1.70;;
65717;SDS011;52445;52.466;-1.016;2024-03-25T04:36:20;6.35;;;2.25;;
65717;SDS011;52445;52.466;-1.016;2024-03-25T04:38:46;6.22;;;2.03;;
65717;SDS011;52445;52.466;-1.016;2024-03-25T04:41:12;7.07;;;1.80;;
65717;SDS011;52445;52.466;-1.016;2024-03-25T04:43:37;9.13;;;2.20;;
65717;SDS011;52445;52.466;-1.016;2024-03-25T04:46:03;2.85;;;1.17;;
65717;SDS011;52445;52.466;-1.016;2024-03-25T04:48:29;9.48;;;2.55;;
65717;SDS011;52445;52.466;-1.016;2024-03-25T04:50:55;9.52;;;3.15;;
65717;SDS011;52445;52.466;-1.016;2024-03-25T04:53:20;4.50;;;1.90;;
65717;SDS011;52445;52.466;-1.016;2024-03-25T04:55:46;5.97;;;2.40;;
65717;SDS011;52445;52.466;-1.016;2024-03-25T04:58:12;3.83;;;1.90;;
65717;SDS011;52445;52.466;-1.016;2024-03-25T05:00:37;6.75;;;1.92;;
65717;SDS011;52445;52.466;-1.016;2024-03-25T05:03:03;5.97;;;1.65;;
65717;SDS011;52445;52.466;-1.016;2024-03-25T05:05:29;6.65;;;1.55;;
65717;SDS011;52445;52.466;-1.016;2024-03-25T05:07:55;4.38;;;1.52;;
65717;SDS011;52445;52.466;-1.016;2024-03-25T05:10:21;6.40;;;1.42;;
65717;SDS011;52445;52.466;-1.016;2024-03-25T05:12:46;3.83;;;1.50;;
65717;SDS011;52445;52.466;-1.016;2024-03-25T05:15:14;5.72;;;1.85;;
65717;SDS011;52445;52.466;-1.016;2024-03-25T05:17:40;7.32;;;1.65;;
65717;SDS011;52445;52.466;-1.016;2024-03-25T05:20:06;4.68;;;1.77;;
65717;SDS011;52445;52.466;-1.016;2024-03-25T05:22:32;4.53;;;1.95;;
65717;SDS011;52445;52.466;-1.016;2024-03-25T05:24:58;11.95;;;2.00;;
65717;SDS011;52445;52.466;-1.016;2024-03-25T05:27:24;7.85;;;2.60;;
65717;SDS011;52445;52.466;-1.016;2024-03-25T05:29:49;5.90;;;1.60;;
65717;SDS011;52445;52.466;-1.016;2024-03-25T05:32:15;3.20;;;1.45;;
65717;SDS011;52445;52.466;-1.016;2024-03-25T05:34:42;7.22;;;1.92;;
65717;SDS011;52445;52.466;-1.016;2024-03-25T05:37:08;1.92;;;1.50;;
65717;SDS011;52445;52.466;-1.016;2024-03-25T05:39:34;9.38;;;2.15;;
65717;SDS011;52445;52.466;-1.016;2024-03-25T05:42:00;8.23;;;2.83;;
65717;SDS011;52445;52.466;-1.016;2024-03-25T05:44:25;4.97;;;2.13;;
65717;SDS011;52445;52.466;-1.016;2024-03-25T05:46:51;4.90;;;2.30;;
65717;SDS011;52445;52.466;-1.016;2024-03-25T05:49:16;6.63;;;2.38;;
65717;SDS011;52445;52.466;-1.016;2024-03-25T05:51:42;5.20;;;1.77;;
65717;SDS011;52445;52.466;-1.016;2024-03-25T05:54:08;6.45;;;1.73;;
65717;SDS011;52445;52.466;-1.016;2024-03-25T05:56:33;8.50;;;2.35;;
65717;SDS011;52445;52.466;-1.016;2024-03-25T05:58:59;3.38;;;1.20;;
65717;SDS011;52445;52.466;-1.016;2024-03-25T06:01:26;4.38;;;1.58;;
65717;SDS011;52445;52.466;-1.016;2024-03-25T06:03:52;5.57;;;2.10;;
65717;SDS011;52445;52.466;-1.016;2024-03-25T06:06:18;5.00;;;1.50;;
65717;SDS011;52445;52.466;-1.016;2024-03-25T06:08:43;3.95;;;1.90;;
65717;SDS011;52445;52.466;-1.016;2024-03-25T06:11:09;8.93;;;1.60;;
65717;SDS011;52445;52.466;-1.016;2024-03-25T06:13:35;5.60;;;2.03;;
65717;SDS011;52445;52.466;-1.016;2024-03-25T06:16:01;5.78;;;1.92;;
65717;SDS011;52445;52.466;-1.016;2024-03-25T06:18:26;4.38;;;1.52;;
65717;SDS011;52445;52.466;-1.016;2024-03-25T06:20:52;4.80;;;2.03;;
65717;SDS011;52445;52.466;-1.016;2024-03-25T06:23:22;4.78;;;1.85;;
65717;SDS011;52445;52.466;-1.016;2024-03-25T06:25:49;9.02;;;2.15;;
65717;SDS011;52445;52.466;-1.016;2024-03-25T06:28:15;5.95;;;1.80;;
65717;SDS011;52445;52.466;-1.016;2024-03-25T06:30:41;3.85;;;1.48;;
65717;SDS011;52445;52.466;-1.016;2024-03-25T06:33:26;4.10;;;1.75;;
65717;SDS011;52445;52.466;-1.016;2024-03-25T06:36:12;3.88;;;1.27;;
65717;SDS011;52445;52.466;-1.016;2024-03-25T06:38:38;5.28;;;1.60;;
65717;SDS011;52445;52.466;-1.016;2024-03-25T06:41:03;3.90;;;1.83;;
65717;SDS011;52445;52.466;-1.016;2024-03-25T06:43:29;2.33;;;1.25;;
65717;SDS011;52445;52.466;-1.016;2024-03-25T06:45:55;4.78;;;1.30;;
65717;SDS011;52445;52.466;-1.016;2024-03-25T06:48:20;4.88;;;1.83;;
65717;SDS011;52445;52.466;-1.016;2024-03-25T06:50:55;8.25;;;1.23;;
65717;SDS011;52445;52.466;-1.016;2024-03-25T06:53:21;10.60;;;1.65;;
65717;SDS011;52445;52.466;-1.016;2024-03-25T06:55:51;4.55;;;1.90;;
65717;SDS011;52445;52.466;-1.016;2024-03-25T06:58:28;6.50;;;1.63;;
65717;SDS011;52445;52.466;-1.016;2024-03-25T07:00:54;3.22;;;1.23;;
65717;SDS011;52445;52.466;-1.016;2024-03-25T07:03:22;12.13;;;1.90;;
65717;SDS011;52445;52.466;-1.016;2024-03-25T07:05:49;6.70;;;1.92;;
65717;SDS011;52445;52.466;-1.016;2024-03-25T07:08:17;4.00;;;1.73;;
65717;SDS011;52445;52.466;-1.016;2024-03-25T07:10:45;3.88;;;1.55;;
65717;SDS011;52445;52.466;-1.016;2024-03-25T07:13:11;3.03;;;1.05;;
65717;SDS011;52445;52.466;-1.016;2024-03-25T07:15:37;1.95;;;1.35;;
65717;SDS011;52445;52.466;-1.016;2024-03-25T07:18:04;7.35;;;1.92;;
65717;SDS011;52445;52.466;-1.016;2024-03-25T07:20:30;8.48;;;1.85;;
65717;SDS011;52445;52.466;-1.016;2024-03-25T07:22:56;5.72;;;1.17;;
65717;SDS011;52445;52.466;-1.016;2024-03-25T07:25:22;2.38;;;0.68;;
65717;SDS011;52445;52.466;-1.016;2024-03-25T07:27:49;3.70;;;1.67;;
65717;SDS011;52445;52.466;-1.016;2024-03-25T07:30:15;5.97;;;1.60;;
65717;SDS011;52445;52.466;-1.016;2024-03-25T07:32:41;6.80;;;1.00;;
65717;SDS011;52445;52.466;-1.016;2024-03-25T07:35:07;2.60;;;1.10;;
65717;SDS011;52445;52.466;-1.016;2024-03-25T07:37:35;4.68;;;1.13;;
65717;SDS011;52445;52.466;-1.016;2024-03-25T07:40:00;3.17;;;1.20;;
65717;SDS011;52445;52.466;-1.016;2024-03-25T07:42:26;3.00;;;1.27;;
65717;SDS011;52445;52.466;-1.016;2024-03-25T07:44:52;2.53;;;1.27;;
65717;SDS011;52445;52.466;-1.016;2024-03-25T07:47:18;4.00;;;1.52;;
65717;SDS011;52445;52.466;-1.016;2024-03-25T07:49:44;4.38;;;1.92;;
65717;SDS011;52445;52.466;-1.016;2024-03-25T07:52:10;7.78;;;2.35;;
65717;SDS011;52445;52.466;-1.016;2024-03-25T07:54:35;4.68;;;2.08;;
65717;SDS011;52445;52.466;-1.016;2024-03-25T07:57:03;2.00;;;1.35;;
65717;SDS011;52445;52.466;-1.016;2024-03-25T07:59:29;2.17;;;0.90;;
65717;SDS011;52445;52.466;-1.016;2024-03-25T08:01:55;2.72;;;1.40;;
65717;SDS011;52445;52.466;-1.016;2024-03-25T08:04:21;1.80;;;0.95;;
65717;SDS011;52445;52.466;-1.016;2024-03-25T08:06:47;4.68;;;1.73;;
65717;SDS011;52445;52.466;-1.016;2024-03-25T08:09:12;2.40;;;1.60;;
65717;SDS011;52445;52.466;-1.016;2024-03-25T08:11:40;2.90;;;1.08;;
65717;SDS011;52445;52.466;-1.016;2024-03-25T08:14:09;7.68;;;1.40;;
65717;SDS011;52445;52.466;-1.016;2024-03-25T08:16:35;3.20;;;1.48;;
65717;SDS011;52445;52.466;-1.016;2024-03-25T08:19:01;3.80;;;1.13;;
65717;SDS011;52445;52.466;-1.016;2024-03-25T08:21:27;2.83;;;0.77;;
65717;SDS011;52445;52.466;-1.016;2024-03-25T08:23:52;9.57;;;1.70;;
65717;SDS011;52445;52.466;-1.016;2024-03-25T08:26:18;4.75;;;1.73;;
65717;SDS011;52445;52.466;-1.016;2024-03-25T08:28:44;3.20;;;1.40;;
65717;SDS011;52445;52.466;-1.016;2024-03-25T08:31:10;6.75;;;1.13;;
65717;SDS011;52445;52.466;-1.016;2024-03-25T08:33:36;4.60;;;1.45;;
65717;SDS011;52445;52.466;-1.016;2024-03-25T08:36:02;3.35;;;1.42;;
65717;SDS011;52445;52.466;-1.016;2024-03-25T08:38:28;3.20;;;1.50;;
65717;SDS011;52445;52.466;-1.016;2024-03-25T08:40:54;5.65;;;1.55;;
65717;SDS011;52445;52.466;-1.016;2024-03-25T08:43:20;2.67;;;1.30;;
65717;SDS011;52445;52.466;-1.016;2024-03-25T08:45:46;1.80;;;0.77;;
65717;SDS011;52445;52.466;-1.016;2024-03-25T08:48:12;4.55;;;1.67;;
65717;SDS011;52445;52.466;-1.016;2024-03-25T08:50:37;9.18;;;1.63;;
65717;SDS011;52445;52.466;-1.016;2024-03-25T08:53:03;5.22;;;2.13;;
65717;SDS011;52445;52.466;-1.016;2024-03-25T08:55:30;3.30;;;1.55;;
65717;SDS011;52445;52.466;-1.016;2024-03-25T08:57:56;8.05;;;1.63;;
65717;SDS011;52445;52.466;-1.016;2024-03-25T09:00:24;3.30;;;1.15;;
65717;SDS011;52445;52.466;-1.016;2024-03-25T09:02:50;10.63;;;2.17;;
65717;SDS011;52445;52.466;-1.016;2024-03-25T09:05:16;2.13;;;1.27;;
65717;SDS011;52445;52.466;-1.016;2024-03-25T09:07:44;4.47;;;1.33;;
65717;SDS011;52445;52.466;-1.016;2024-03-25T09:10:10;3.53;;;1.35;;
65717;SDS011;52445;52.466;-1.016;2024-03-25T09:12:56;1.83;;;0.68;;
65717;SDS011;52445;52.466;-1.016;2024-03-25T09:15:22;3.63;;;1.38;;
65717;SDS011;52445;52.466;-1.016;2024-03-25T09:17:47;4.70;;;1.48;;
65717;SDS011;52445;52.466;-1.016;2024-03-25T09:20:13;4.03;;;1.83;;
65717;SDS011;52445;52.466;-1.016;2024-03-25T09:22:42;3.25;;;1.20;;
65717;SDS011;52445;52.466;-1.016;2024-03-25T09:25:09;2.78;;;1.25;;
65717;SDS011;52445;52.466;-1.016;2024-03-25T09:27:35;3.65;;;2.05;;
65717;SDS011;52445;52.466;-1.016;2024-03-25T09:30:01;1.85;;;1.20;;
65717;SDS011;52445;52.466;-1.016;2024-03-25T09:32:26;3.92;;;1.52;;
65717;SDS011;52445;52.466;-1.016;2024-03-25T09:34:52;5.00;;;0.75;;
65717;SDS011;52445;52.466;-1.016;2024-03-25T09:37:18;1.75;;;0.90;;
65717;SDS011;52445;52.466;-1.016;2024-03-25T09:39:43;3.83;;;1.20;;
65717;SDS011;52445;52.466;-1.016;2024-03-25T09:42:10;4.07;;;1.10;;
65717;SDS011;52445;52.466;-1.016;2024-03-25T09:47:05;4.88;;;1.23;;
65717;SDS011;52445;52.466;-1.016;2024-03-25T09:49:31;3.80;;;1.60;;
65717;SDS011;52445;52.466;-1.016;2024-03-25T09:51:57;1.77;;;1.17;;
65717;SDS011;52445;52.466;-1.016;2024-03-25T09:54:23;2.55;;;1.35;;
65717;SDS011;52445;52.466;-1.016;2024-03-25T09:56:50;12.27;;;2.05;;
65717;SDS011;52445;52.466;-1.016;2024-03-25T09:59:16;3.58;;;1.27;;
65717;SDS011;52445;52.466;-1.016;2024-03-25T10:01:43;1.88;;;1.65;;
65717;SDS011;52445;52.466;-1.016;2024-03-25T10:04:08;6.15;;;0.95;;
65717;SDS011;52445;52.466;-1.016;2024-03-25T10:06:35;3.33;;;1.10;;
65717;SDS011;52445;52.466;-1.016;2024-03-25T10:09:04;4.60;;;1.23;;
65717;SDS011;52445;52.466;-1.016;2024-03-25T10:11:31;3.45;;;1.38;;
65717;SDS011;52445;52.466;-1.016;2024-03-25T10:14:01;3.20;;;1.05;;
65717;SDS011;52445;52.466;-1.016;2024-03-25T10:16:27;3.05;;;1.27;;
65717;SDS011;52445;52.466;-1.016;2024-03-25T10:18:53;4.00;;;0.73;;
65717;SDS011;52445;52.466;-1.016;2024-03-25T10:21:20;3.65;;;1.42;;
65717;SDS011;52445;52.466;-1.016;2024-03-25T10:23:47;2.13;;;0.93;;
65717;SDS011;52445;52.466;-1.016;2024-03-25T10:26:30;1.73;;;1.05;;
65717;SDS011;52445;52.466;-1.016;2024-03-25T10:29:01;2.65;;;1.70;;
65717;SDS011;52445;52.466;-1.016;2024-03-25T10:31:28;1.63;;;0.80;;
65717;SDS011;52445;52.466;-1.016;2024-03-25T10:33:54;2.00;;;0.90;;
65717;SDS011;52445;52.466;-1.016;2024-03-25T10:36:20;5.40;;;0.88;;
65717;SDS011;52445;52.466;-1.016;2024-03-25T10:38:48;2.42;;;0.93;;
65717;SDS011;52445;52.466;-1.016;2024-03-25T10:41:17;2.97;;;1.17;;
65717;SDS011;52445;52.466;-1.016;2024-03-25T10:43:45;2.60;;;1.10;;
65717;SDS011;52445;52.466;-1.016;2024-03-25T10:46:14;3.97;;;1.73;;
65717;SDS011;52445;52.466;-1.016;2024-03-25T10:48:43;2.88;;;1.42;;
65717;SDS011;52445;52.466;-1.016;2024-03-25T10:51:16;6.50;;;0.80;;
65717;SDS011;52445;52.466;-1.016;2024-03-25T10:53:43;1.98;;;1.08;;
65717;SDS011;52445;52.466;-1.016;2024-03-25T10:56:10;3.33;;;1.17;;
65717;SDS011;52445;52.466;-1.016;2024-03-25T10:58:38;2.95;;;1.40;;
65717;SDS011;52445;52.466;-1.016;2024-03-25T11:01:05;1.63;;;0.77;;
65717;SDS011;52445;52.466;-1.016;2024-03-25T11:03:32;1.63;;;1.00;;
65717;SDS011;52445;52.466;-1.016;2024-03-25T11:05:58;2.05;;;0.95;;
65717;SDS011;52445;52.466;-1.016;2024-03-25T11:08:30;2.67;;;1.52;;
65717;SDS011;52445;52.466;-1.016;2024-03-25T11:10:56;3.22;;;0.85;;
65717;SDS011;52445;52.466;-1.016;2024-03-25T11:13:22;2.03;;;0.80;;
65717;SDS011;52445;52.466;-1.016;2024-03-25T11:15:48;3.35;;;0.95;;
65717;SDS011;52445;52.466;-1.016;2024-03-25T11:18:15;3.90;;;0.93;;
65717;SDS011;52445;52.466;-1.016;2024-03-25T11:20:42;2.58;;;1.70;;
65717;SDS011;52445;52.466;-1.016;2024-03-25T11:23:09;1.75;;;1.10;;
65717;SDS011;52445;52.466;-1.016;2024-03-25T11:25:36;1.45;;;1.00;;
65717;SDS011;52445;52.466;-1.016;2024-03-25T11:28:02;4.47;;;1.30;;
65717;SDS011;52445;52.466;-1.016;2024-03-25T11:30:29;2.42;;;1.13;;
65717;SDS011;52445;52.466;-1.016;2024-03-25T11:32:56;3.05;;;1.85;;
65717;SDS011;52445;52.466;-1.016;2024-03-25T11:35:23;1.80;;;0.82;;
65717;SDS011;52445;52.466;-1.016;2024-03-25T11:37:58;2.17;;;1.52;;
65717;SDS011;52445;52.466;-1.016;2024-03-25T11:40:24;1.58;;;0.90;;
65717;SDS011;52445;52.466;-1.016;2024-03-25T11:42:50;1.25;;;1.13;;
65717;SDS011;52445;52.466;-1.016;2024-03-25T11:45:16;4.72;;;0.63;;
65717;SDS011;52445;52.466;-1.016;2024-03-25T11:47:44;2.20;;;1.15;;
65717;SDS011;52445;52.466;-1.016;2024-03-25T11:50:13;2.65;;;0.95;;
65717;SDS011;52445;52.466;-1.016;2024-03-25T11:52:40;2.95;;;1.10;;
65717;SDS011;52445;52.466;-1.016;2024-03-25T11:55:06;4.03;;;1.48;;
65717;SDS011;52445;52.466;-1.016;2024-03-25T11:57:35;3.55;;;1.30;;
65717;SDS011;52445;52.466;-1.016;2024-03-25T12:00:01;2.13;;;1.05;;
65717;SDS011;52445;52.466;-1.016;2024-03-25T12:02:30;2.72;;;0.80;;
65717;SDS011;52445;52.466;-1.016;2024-03-25T12:04:57;3.75;;;1.08;;
65717;SDS011;52445;52.466;-1.016;2024-03-25T12:07:22;2.08;;;0.75;;
65717;SDS011;52445;52.466;-1.016;2024-03-25T12:09:48;6.15;;;1.67;;
65717;SDS011;52445;52.466;-1.016;2024-03-25T12:12:34;2.45;;;0.90;;
65717;SDS011;52445;52.466;-1.016;2024-03-25T12:15:00;2.30;;;1.65;;
65717;SDS011;52445;52.466;-1.016;2024-03-25T12:17:28;1.55;;;1.20;;
65717;SDS011;52445;52.466;-1.016;2024-03-25T12:19:58;1.90;;;0.70;;
65717;SDS011;52445;52.466;-1.016;2024-03-25T12:22:25;2.55;;;1.20;;
65717;SDS011;52445;52.466;-1.016;2024-03-25T12:24:51;3.95;;;0.80;;
65717;SDS011;52445;52.466;-1.016;2024-03-25T12:27:17;6.55;;;2.00;;
65717;SDS011;52445;52.466;-1.016;2024-03-25T12:29:43;2.70;;;1.15;;
65717;SDS011;52445;52.466;-1.016;2024-03-25T12:32:09;2.88;;;1.00;;
65717;SDS011;52445;52.466;-1.016;2024-03-25T12:34:35;1.25;;;0.60;;
65717;SDS011;52445;52.466;-1.016;2024-03-25T12:37:01;1.58;;;1.10;;
65717;SDS011;52445;52.466;-1.016;2024-03-25T12:39:30;3.75;;;1.10;;
65717;SDS011;52445;52.466;-1.016;2024-03-25T12:41:55;2.00;;;1.23;;
65717;SDS011;52445;52.466;-1.016;2024-03-25T12:44:21;2.70;;;1.10;;
65717;SDS011;52445;52.466;-1.016;2024-03-25T12:46:47;4.90;;;1.25;;
65717;SDS011;52445;52.466;-1.016;2024-03-25T12:49:13;5.90;;;1.42;;
65717;SDS011;52445;52.466;-1.016;2024-03-25T12:51:38;2.20;;;1.13;;
65717;SDS011;52445;52.466;-1.016;2024-03-25T12:54:04;2.22;;;1.42;;
65717;SDS011;52445;52.466;-1.016;2024-03-25T12:56:30;1.88;;;1.13;;
65717;SDS011;52445;52.466;-1.016;2024-03-25T12:58:55;7.05;;;1.77;;
65717;SDS011;52445;52.466;-1.016;2024-03-25T13:01:21;3.28;;;1.08;;
65717;SDS011;52445;52.466;-1.016;2024-03-25T13:03:47;2.00;;;0.85;;
65717;SDS011;52445;52.466;-1.016;2024-03-25T13:06:12;3.65;;;1.55;;
65717;SDS011;52445;52.466;-1.016;2024-03-25T13:08:38;2.90;;;1.30;;
65717;SDS011;52445;52.466;-1.016;2024-03-25T13:11:04;3.30;;;0.80;;
65717;SDS011;52445;52.466;-1.016;2024-03-25T13:13:29;6.00;;;1.58;;
65717;SDS011;52445;52.466;-1.016;2024-03-25T13:15:55;2.53;;;0.85;;
65717;SDS011;52445;52.466;-1.016;2024-03-25T13:18:21;5.63;;;1.00;;
65717;SDS011;52445;52.466;-1.016;2024-03-25T13:20:46;1.50;;;0.70;;
65717;SDS011;52445;52.466;-1.016;2024-03-25T13:23:12;2.03;;;1.17;;
65717;SDS011;52445;52.466;-1.016;2024-03-25T13:25:38;4.43;;;2.22;;
65717;SDS011;52445;52.466;-1.016;2024-03-25T13:28:03;3.65;;;1.35;;
65717;SDS011;52445;52.466;-1.016;2024-03-25T13:30:30;3.63;;;0.93;;
65717;SDS011;52445;52.466;-1.016;2024-03-25T13:32:57;3.38;;;1.38;;
65717;SDS011;52445;52.466;-1.016;2024-03-25T13:35:23;5.50;;;1.85;;
65717;SDS011;52445;52.466;-1.016;2024-03-25T13:37:49;2.90;;;1.02;;
65717;SDS011;52445;52.466;-1.016;2024-03-25T13:40:14;3.28;;;1.27;;
65717;SDS011;52445;52.466;-1.016;2024-03-25T13:42:40;1.77;;;1.65;;
65717;SDS011;52445;52.466;-1.016;2024-03-25T13:45:06;4.93;;;1.48;;
65717;SDS011;52445;52.466;-1.016;2024-03-25T13:47:32;3.17;;;1.85;;
65717;SDS011;52445;52.466;-1.016;2024-03-25T13:50:02;4.88;;;0.80;;
65717;SDS011;52445;52.466;-1.016;2024-03-25T13:52:29;2.60;;;0.77;;
65717;SDS011;52445;52.466;-1.016;2024-03-25T13:54:56;3.63;;;1.38;;
65717;SDS011;52445;52.466;-1.016;2024-03-25T13:57:22;2.25;;;0.90;;
65717;SDS011;52445;52.466;-1.016;2024-03-25T13:59:48;2.30;;;0.82;;
65717;SDS011;52445;52.466;-1.016;2024-03-25T14:02:15;1.77;;;1.05;;
65717;SDS011;52445;52.466;-1.016;2024-03-25T14:04:41;2.00;;;1.80;;
65717;SDS011;52445;52.466;-1.016;2024-03-25T14:07:07;2.95;;;1.00;;
65717;SDS011;52445;52.466;-1.016;2024-03-25T14:09:32;1.92;;;1.38;;
65717;SDS011;52445;52.466;-1.016;2024-03-25T14:11:58;3.42;;;1.23;;
65717;SDS011;52445;52.466;-1.016;2024-03-25T14:14:23;1.40;;;0.90;;
65717;SDS011;52445;52.466;-1.016;2024-03-25T14:16:50;2.40;;;1.23;;
65717;SDS011;52445;52.466;-1.016;2024-03-25T14:19:17;4.70;;;1.60;;
65717;SDS011;52445;52.466;-1.016;2024-03-25T14:21:43;3.78;;;1.40;;
65717;SDS011;52445;52.466;-1.016;2024-03-25T14:24:09;2.90;;;0.98;;
65717;SDS011;52445;52.466;-1.016;2024-03-25T14:26:34;2.33;;;1.10;;
65717;SDS011;52445;52.466;-1.016;2024-03-25T14:29:00;4.82;;;1.58;;
65717;SDS011;52445;52.466;-1.016;2024-03-25T14:31:26;6.57;;;1.42;;